Time;durP1;ratioP1;P1;durP2;ratioP2;P2;SDS_P1;SDS_P2;PMS_P1;PMS_P2;Temp;Humidity;BMP_temperature;BMP_pressure;BME280_temperature;BME280_humidity;BME280_pressure;Samples;Min_cycle;Max_cycle;Signal;HPM_P1;HPM_P2
2022/09/17 00:00:18;;;;;;;15.68;3.28;;;11.50;1.00;;;;;;4953538;28;20035;-58
2022/09/17 00:02:45;;;;;;;11.57;3.15;;;11.80;1.00;;;;;;4952259;28;20056;-59
2022/09/17 00:05:11;;;;;;;11.90;3.20;;;12.00;1.00;;;;;;4953421;28;20044;-59
2022/09/17 00:07:37;;;;;;;13.63;3.30;;;11.50;1.00;;;;;;4952863;29;20038;-58
2022/09/17 00:10:04;;;;;;;16.23;2.70;;;11.50;1.00;;;;;;4952791;28;20564;-59
2022/09/17 00:12:31;;;;;;;19.05;4.05;;;11.60;1.00;;;;;;4953416;28;20493;-59
2022/09/17 00:14:56;;;;;;;16.88;2.40;;;11.20;1.00;;;;;;4947816;28;20126;-59
2022/09/17 00:17:22;;;;;;;14.50;3.47;;;;;;;;;;4952852;28;20110;-55
2022/09/17 00:19:48;;;;;;;13.82;4.03;;;11.90;1.00;;;;;;4951256;28;20127;-55
2022/09/17 00:22:14;;;;;;;13.90;2.60;;;11.70;1.00;;;;;;4953544;29;20478;-57
2022/09/17 00:24:40;;;;;;;9.80;2.45;;;12.30;1.00;;;;;;4953073;28;20379;-58
2022/09/17 00:27:06;;;;;;;12.38;2.60;;;12.00;1.00;;;;;;4952636;29;20109;-58
2022/09/17 00:29:31;;;;;;;8.68;1.90;;;12.10;1.00;;;;;;4952705;29;20400;-59
2022/09/17 00:31:57;;;;;;;11.93;3.70;;;11.90;1.00;;;;;;4952490;29;20043;-58
2022/09/17 00:34:23;;;;;;;9.57;1.98;;;12.40;1.00;;;;;;4952993;28;20043;-54
2022/09/17 00:36:48;;;;;;;7.97;2.55;;;12.40;1.00;;;;;;4952164;29;20058;-57
2022/09/17 00:39:15;;;;;;;10.27;2.15;;;12.00;1.00;;;;;;4952421;29;20374;-57
2022/09/17 00:41:41;;;;;;;12.65;2.95;;;;;;;;;;4952847;28;20043;-58
2022/09/17 00:44:45;;;;;;;16.73;3.40;;;11.20;1.00;;;;;;4951562;28;20067;-58
2022/09/17 00:47:40;;;;;;;10.48;1.90;;;11.60;1.00;;;;;;4946792;29;20046;-55
2022/09/17 00:50:21;;;;;;;11.38;2.13;;;11.50;1.00;;;;;;4940799;29;20051;-58
2022/09/17 00:52:54;;;;;;;16.27;2.80;;;11.50;1.00;;;;;;4952862;28;20047;-57
2022/09/17 00:55:25;;;;;;;10.65;2.33;;;11.30;1.00;;;;;;4946263;28;20081;-58
2022/09/17 00:57:54;;;;;;;15.35;2.50;;;11.10;1.00;;;;;;4952243;28;20045;-58
2022/09/17 01:00:20;;;;;;;13.80;3.08;;;11.20;1.00;;;;;;4952345;29;20559;-58
2022/09/17 01:02:46;;;;;;;11.10;2.28;;;10.90;1.00;;;;;;4951433;28;20047;-59
2022/09/17 01:05:13;;;;;;;15.45;3.15;;;10.80;1.00;;;;;;4950899;28;20121;-58
2022/09/17 01:08:01;;;;;;;12.68;2.72;;;11.10;1.00;;;;;;4951583;28;20049;-59
2022/09/17 01:10:33;;;;;;;15.30;2.80;;;11.60;1.00;;;;;;4951400;28;20453;-59
2022/09/17 01:13:20;;;;;;;12.52;3.33;;;10.90;1.00;;;;;;4952685;29;20509;-59
2022/09/17 01:16:03;;;;;;;12.27;3.03;;;11.00;1.00;;;;;;4951262;28;20049;-58
2022/09/17 01:18:38;;;;;;;10.55;2.55;;;11.60;1.00;;;;;;4951769;29;20421;-58
2022/09/17 01:21:14;;;;;;;10.75;2.28;;;11.70;1.00;;;;;;4952176;29;20495;-58
2022/09/17 01:24:16;;;;;;;9.80;2.38;;;11.10;1.00;;;;;;4951999;28;20101;-59
2022/09/17 01:27:08;;;;;;;11.45;2.17;;;11.50;1.00;;;;;;4952164;29;20073;-59
2022/09/17 01:29:53;;;;;;;13.20;3.00;;;10.70;1.00;;;;;;4949702;29;20060;-59
2022/09/17 01:32:52;;;;;;;16.15;3.35;;;11.40;1.00;;;;;;4951245;29;20043;-58
2022/09/17 01:35:34;;;;;;;13.43;2.40;;;10.80;1.00;;;;;;4952193;28;20369;-59
2022/09/17 01:38:12;;;;;;;15.07;2.78;;;11.10;1.00;;;;;;4944098;29;20035;-59
2022/09/17 01:40:51;;;;;;;10.55;2.47;;;11.20;1.00;;;;;;4951785;29;20039;-54
2022/09/17 01:43:51;;;;;;;10.82;2.35;;;11.30;1.00;;;;;;4946942;28;20039;-58
2022/09/17 01:46:31;;;;;;;12.15;2.50;;;10.50;1.00;;;;;;4949636;28;20050;-58
2022/09/17 01:49:01;;;;;;;12.00;3.45;;;11.40;1.00;;;;;;4951576;28;20315;-59
2022/09/17 01:51:30;;;;;;;10.55;2.10;;;11.60;1.00;;;;;;4948709;28;20110;-59
2022/09/17 01:54:04;;;;;;;13.35;2.60;;;11.10;1.00;;;;;;4951619;28;20465;-59
2022/09/17 01:56:37;;;;;;;11.45;2.25;;;11.00;1.00;;;;;;4950920;29;20035;-59
2022/09/17 01:59:24;;;;;;;12.18;2.13;;;11.20;1.00;;;;;;4949766;29;20051;-58
2022/09/17 02:01:54;;;;;;;8.82;2.03;;;11.80;1.00;;;;;;4950132;29;20047;-58
2022/09/17 02:04:27;;;;;;;11.18;2.67;;;11.30;1.00;;;;;;4951649;28;20560;-58
2022/09/17 02:07:00;;;;;;;12.70;2.65;;;11.00;1.00;;;;;;4943926;29;20114;-58
2022/09/17 02:09:35;;;;;;;12.57;2.22;;;11.30;1.00;;;;;;4951535;29;20046;-59
2022/09/17 02:12:06;;;;;;;10.27;2.03;;;11.60;1.00;;;;;;4945633;29;20031;-59
2022/09/17 02:15:00;;;;;;;13.20;2.15;;;11.00;1.00;;;;;;4951655;28;20039;-59
2022/09/17 02:17:45;;;;;;;11.10;2.90;;;10.60;1.00;;;;;;4949573;29;20462;-59
2022/09/17 02:20:12;;;;;;;12.00;1.98;;;10.90;1.00;;;;;;4946397;29;20251;-59
2022/09/17 02:22:47;;;;;;;13.02;2.53;;;10.70;1.00;;;;;;4954487;28;20045;-59
2022/09/17 02:25:51;;;;;;;11.02;2.30;;;11.20;1.00;;;;;;4955522;28;20049;-58
2022/09/17 02:28:31;;;;;;;12.15;2.67;;;10.80;1.00;;;;;;4881852;29;20478;-59
2022/09/17 02:30:56;;;;;;;11.27;2.67;;;10.60;1.00;;;;;;4945042;29;20058;-59
2022/09/17 02:33:22;;;;;;;11.98;2.50;;;10.70;1.00;;;;;;4955355;29;20397;-59
2022/09/17 02:35:48;;;;;;;12.38;3.17;;;;;;;;;;4955153;28;20118;-59
2022/09/17 02:38:24;;;;;;;16.48;3.85;;;10.80;1.00;;;;;;4953558;29;20509;-58
2022/09/17 02:40:59;;;;;;;15.55;2.33;;;12.00;1.00;;;;;;4955464;28;20062;-59
2022/09/17 02:43:34;;;;;;;;;;;11.80;1.00;;;;;;4943166;29;20031;-59
2022/09/17 02:46:20;;;;;;;11.75;2.67;;;11.40;1.00;;;;;;4955208;28;19922;-59
2022/09/17 02:49:23;;;;;;;10.15;2.15;;;11.70;1.00;;;;;;4954481;29;20059;-59
2022/09/17 02:52:21;;;;;;;14.82;3.35;;;11.50;1.00;;;;;;4955060;28;20051;-59
2022/09/17 02:54:55;;;;;;;9.65;2.40;;;11.70;1.00;;;;;;4954479;28;20190;-57
2022/09/17 02:57:34;;;;;;;7.00;2.13;;;12.00;1.00;;;;;;4954363;29;20035;-59
2022/09/17 03:00:15;;;;;;;8.82;1.40;;;12.10;1.00;;;;;;4948532;29;20039;-58
2022/09/17 03:02:43;;;;;;;7.00;1.23;;;11.60;99.90;;;;;;4953471;29;20135;-56
2022/09/17 03:05:09;;;;;;;6.40;1.50;;;11.40;99.90;;;;;;4954975;28;20039;-59
2022/09/17 03:07:36;;;;;;;9.85;1.67;;;12.10;99.90;;;;;;4954015;29;20375;-58
2022/09/17 03:10:02;;;;;;;7.88;1.52;;;11.30;99.90;;;;;;4951732;29;20039;-58
2022/09/17 03:12:28;;;;;;;7.20;1.83;;;11.70;99.90;;;;;;4954620;29;20043;-58
2022/09/17 03:14:54;;;;;;;7.30;1.80;;;;;;;;;;4954685;28;20042;-59
2022/09/17 03:17:20;;;;;;;10.02;1.80;;;11.60;99.90;;;;;;4953570;28;20038;-59
2022/09/17 03:19:49;;;;;;;14.98;2.25;;;11.30;99.90;;;;;;4954650;29;20409;-57
2022/09/17 03:22:14;;;;;;;7.20;1.55;;;11.70;1.00;;;;;;4954304;29;20039;-57
2022/09/17 03:24:42;;;;;;;10.60;1.92;;;11.90;1.00;;;;;;4954409;28;20090;-56
2022/09/17 03:27:07;;;;;;;14.77;2.75;;;11.50;1.00;;;;;;4953939;29;20494;-58
2022/09/17 03:29:33;;;;;;;10.88;1.80;;;11.90;1.00;;;;;;4953781;29;20094;-57
2022/09/17 03:31:59;;;;;;;10.77;1.98;;;11.20;1.00;;;;;;4954383;29;20074;-55
2022/09/17 03:34:25;;;;;;;11.02;2.10;;;11.10;1.00;;;;;;4952712;28;20047;-58
2022/09/17 03:36:54;;;;;;;8.07;1.85;;;;;;;;;;4953793;29;20561;-57
2022/09/17 03:39:20;;;;;;;8.15;1.50;;;10.70;1.00;;;;;;4953272;28;20046;-58
2022/09/17 03:41:45;;;;;;;10.88;2.03;;;11.70;1.00;;;;;;4954635;29;20035;-56
2022/09/17 03:44:11;;;;;;;8.20;1.80;;;11.00;1.00;;;;;;4953989;28;20106;-59
2022/09/17 03:46:37;;;;;;;10.02;2.08;;;10.70;1.00;;;;;;4953492;29;20114;-59
2022/09/17 03:49:02;;;;;;;15.25;3.67;;;11.00;1.00;;;;;;4953696;29;20355;-58
2022/09/17 03:51:28;;;;;;;13.65;2.05;;;11.00;1.00;;;;;;4953770;29;20035;-59
2022/09/17 03:53:54;;;;;;;12.25;2.42;;;11.10;1.00;;;;;;4952711;28;20417;-59
2022/09/17 03:56:19;;;;;;;12.18;2.38;;;11.10;1.00;;;;;;4952672;29;20379;-57
2022/09/17 03:58:45;;;;;;;11.20;3.78;;;10.80;1.00;;;;;;4952322;29;20050;-57
2022/09/17 04:01:11;;;;;;;9.10;2.47;;;11.20;1.00;;;;;;4953848;29;20031;-58
2022/09/17 04:03:36;;;;;;;13.90;2.47;;;11.00;1.00;;;;;;4953232;28;20196;-58
2022/09/17 04:06:02;;;;;;;14.05;2.22;;;10.90;1.00;;;;;;4953502;29;20035;-58
2022/09/17 04:08:28;;;;;;;15.98;2.65;;;11.00;1.00;;;;;;4953083;29;20104;-56
2022/09/17 04:10:53;;;;;;;13.23;2.70;;;10.80;1.00;;;;;;4953564;29;20038;-58
2022/09/17 04:13:19;;;;;;;8.70;1.77;;;10.90;1.00;;;;;;4953647;29;20470;-57
2022/09/17 04:15:46;;;;;;;8.50;1.85;;;10.60;1.00;;;;;;4952357;28;20047;-58
2022/09/17 04:18:12;;;;;;;9.27;1.73;;;9.90;1.00;;;;;;4952993;29;20027;-57
2022/09/17 04:20:38;;;;;;;9.05;1.88;;;10.40;1.00;;;;;;4951908;29;20050;-58
2022/09/17 04:23:06;;;;;;;12.07;1.90;;;9.70;1.00;;;;;;4954043;29;20039;-57
2022/09/17 04:25:32;;;;;;;9.80;1.92;;;9.70;1.00;;;;;;4952547;28;20047;-58
2022/09/17 04:27:58;;;;;;;7.60;1.70;;;9.30;1.00;;;;;;4952773;29;20130;-59
2022/09/17 04:30:23;;;;;;;6.53;1.40;;;9.30;1.00;;;;;;4953349;29;20110;-58
2022/09/17 04:32:49;;;;;;;7.28;1.65;;;9.30;1.00;;;;;;4953156;29;20087;-57
2022/09/17 04:35:14;;;;;;;7.38;1.92;;;9.30;1.00;;;;;;4952681;28;20170;-58
2022/09/17 04:37:40;;;;;;;14.00;2.53;;;9.60;1.00;;;;;;4952666;29;20050;-59
2022/09/17 04:40:07;;;;;;;9.48;1.85;;;9.40;1.00;;;;;;4952032;29;20094;-59
2022/09/17 04:42:32;;;;;;;6.65;1.95;;;9.20;1.00;;;;;;4935953;29;20113;-59
2022/09/17 04:44:58;;;;;;;6.72;1.75;;;10.10;1.00;;;;;;4952511;28;20568;-59
2022/09/17 04:47:24;;;;;;;11.30;2.20;;;10.30;1.00;;;;;;4951876;29;20038;-58
2022/09/17 04:49:50;;;;;;;7.25;2.17;;;9.20;1.00;;;;;;4952426;28;20100;-59
2022/09/17 04:52:16;;;;;;;10.40;2.15;;;10.00;1.00;;;;;;4951323;29;20126;-59
2022/09/17 04:54:42;;;;;;;12.90;2.63;;;9.60;1.00;;;;;;4952739;28;20039;-58
2022/09/17 04:57:07;;;;;;;7.60;1.77;;;10.60;1.00;;;;;;4951992;29;20035;-59
2022/09/17 04:59:33;;;;;;;9.82;2.42;;;10.60;1.00;;;;;;4953115;29;20046;-58
2022/09/17 05:01:59;;;;;;;8.40;1.60;;;10.00;1.00;;;;;;4952478;29;20078;-58
2022/09/17 05:04:24;;;;;;;6.95;1.50;;;10.80;1.00;;;;;;4953079;28;20118;-56
2022/09/17 05:06:50;;;;;;;9.65;2.47;;;10.70;1.00;;;;;;4952622;29;20046;-58
2022/09/17 05:09:15;;;;;;;13.20;2.28;;;9.80;1.00;;;;;;4951596;29;20369;-57
2022/09/17 05:11:41;;;;;;;11.05;1.67;;;10.70;1.00;;;;;;4948278;28;20079;-56
2022/09/17 05:14:07;;;;;;;10.38;2.00;;;10.50;1.00;;;;;;4950842;28;20049;-58
2022/09/17 05:16:33;;;;;;;10.90;2.35;;;9.80;1.00;;;;;;4951164;29;20057;-58
2022/09/17 05:18:58;;;;;;;13.40;2.63;;;10.50;1.00;;;;;;4951889;29;20035;-57
2022/09/17 05:21:24;;;;;;;9.95;2.17;;;10.60;1.00;;;;;;4952775;29;20043;-56
2022/09/17 05:23:49;;;;;;;14.75;2.30;;;10.50;1.00;;;;;;4952308;28;20045;-58
2022/09/17 05:26:15;;;;;;;10.13;2.30;;;10.70;1.00;;;;;;4952350;29;20086;-58
2022/09/17 05:28:41;;;;;;;10.75;2.00;;;10.80;1.00;;;;;;4951939;29;20126;-54
2022/09/17 05:31:07;;;;;;;9.40;1.90;;;10.60;1.00;;;;;;4952727;29;20042;-56
2022/09/17 05:33:33;;;;;;;8.07;1.50;;;10.60;1.00;;;;;;4952257;28;20039;-57
2022/09/17 05:35:59;;;;;;;7.20;1.73;;;10.70;1.00;;;;;;4952332;29;20035;-56
2022/09/17 05:38:24;;;;;;;9.00;1.58;;;10.50;1.00;;;;;;4950588;29;20509;-59
2022/09/17 05:40:50;;;;;;;16.17;2.38;;;11.50;1.00;;;;;;4952085;29;20039;-53
2022/09/17 05:43:16;;;;;;;8.77;1.80;;;10.40;1.00;;;;;;4952116;29;20046;-57
2022/09/17 05:45:43;;;;;;;11.48;2.40;;;;;;;;;;4952082;28;20425;-57
2022/09/17 05:48:12;;;;;;;11.05;1.88;;;9.90;1.00;;;;;;4965560;23;20046;-57
2022/09/17 05:50:38;;;;;;;12.85;2.33;;;10.00;1.00;;;;;;4950738;29;20046;-60
2022/09/17 05:53:07;;;;;;;8.30;2.03;;;10.40;1.00;;;;;;4952180;28;20038;-57
2022/09/17 05:55:34;;;;;;;7.13;1.35;;;10.30;1.00;;;;;;4950821;28;20122;-58
2022/09/17 05:58:00;;;;;;;12.00;2.03;;;9.50;1.00;;;;;;4954847;28;20039;-58
2022/09/17 06:00:25;;;;;;;9.10;2.58;;;9.60;1.00;;;;;;4955339;29;20035;-57
2022/09/17 06:02:57;;;;;;;7.63;1.48;;;9.50;1.00;;;;;;4955908;28;20086;-57
2022/09/17 06:05:23;;;;;;;9.57;2.05;;;9.40;1.00;;;;;;4955542;28;20039;-57
2022/09/17 06:07:50;;;;;;;9.20;2.90;;;10.10;1.00;;;;;;4953951;29;20035;-59
2022/09/17 06:10:16;;;;;;;10.18;1.70;;;9.30;1.00;;;;;;4954481;28;20122;-57
2022/09/17 06:12:41;;;;;;;10.05;2.22;;;9.70;1.00;;;;;;4955620;28;20047;-58
2022/09/17 06:15:07;;;;;;;9.02;1.90;;;10.50;1.00;;;;;;4955403;28;20039;-57
2022/09/17 06:17:35;;;;;;;9.80;1.98;;;10.10;1.00;;;;;;4954986;28;20504;-58
2022/09/17 06:20:01;;;;;;;10.38;2.00;;;10.10;1.00;;;;;;4955663;28;20517;-57
2022/09/17 06:22:27;;;;;;;11.23;2.47;;;9.90;1.00;;;;;;4953770;28;20031;-58
2022/09/17 06:24:52;;;;;;;12.82;2.33;;;10.20;1.00;;;;;;4953499;28;20472;-58
2022/09/17 06:27:18;;;;;;;11.80;2.40;;;9.90;1.00;;;;;;4953485;29;20051;-57
2022/09/17 06:29:47;;;;;;;7.80;1.77;;;9.50;1.00;;;;;;4947219;29;20098;-58
2022/09/17 06:32:15;;;;;;;11.85;1.73;;;10.70;1.00;;;;;;4948587;29;20061;-58
2022/09/17 06:34:41;;;;;;;12.57;2.25;;;9.80;1.00;;;;;;4948386;28;20070;-58
2022/09/17 06:37:07;;;;;;;9.77;1.67;;;10.80;1.00;;;;;;4951217;29;20074;-56
2022/09/17 06:39:33;;;;;;;10.55;2.45;;;11.10;1.00;;;;;;4952415;29;20408;-58
2022/09/17 06:42:02;;;;;;;8.30;1.70;;;10.40;1.00;;;;;;4954427;28;20520;-57
2022/09/17 06:44:27;;;;;;;9.02;2.35;;;11.00;1.00;;;;;;4953720;28;20047;-58
2022/09/17 06:46:53;;;;;;;13.90;2.65;;;11.50;1.00;;;;;;4953723;29;20110;-57
2022/09/17 06:49:18;;;;;;;7.35;2.13;;;10.80;1.00;;;;;;4954824;29;20113;-58
2022/09/17 06:51:44;;;;;;;12.65;2.53;;;10.80;1.00;;;;;;4954591;28;20039;-58
2022/09/17 06:54:11;;;;;;;11.77;3.45;;;11.40;1.00;;;;;;4954844;28;20039;-58
2022/09/17 06:56:39;;;;;;;8.13;1.92;;;11.10;1.00;;;;;;4954930;28;20043;-57
2022/09/17 06:59:05;;;;;;;8.60;1.90;;;10.60;1.00;;;;;;4954445;29;20074;-57
2022/09/17 07:01:31;;;;;;;8.95;1.40;;;11.20;1.00;;;;;;4949387;29;20045;-57
2022/09/17 07:03:57;;;;;;;8.13;1.80;;;10.80;1.00;;;;;;4954626;28;20039;-59
2022/09/17 07:06:23;;;;;;;5.90;1.10;;;10.40;1.00;;;;;;4924772;29;20070;-58
2022/09/17 07:08:48;;;;;;;4.55;1.20;;;10.80;1.00;;;;;;4943009;28;20040;-58
2022/09/17 07:11:20;;;;;;;7.40;1.23;;;11.10;1.00;;;;;;4941033;29;20040;-57
2022/09/17 07:13:45;;;;;;;7.03;1.55;;;10.20;1.00;;;;;;4943744;28;20032;-56
2022/09/17 07:16:11;;;;;;;6.60;1.30;;;10.60;1.00;;;;;;4942857;29;20512;-58
2022/09/17 07:18:38;;;;;;;11.73;1.63;;;10.30;1.00;;;;;;4953739;28;20520;-58
2022/09/17 07:21:08;;;;;;;6.47;1.50;;;10.00;1.00;;;;;;4950540;28;20386;-58
2022/09/17 07:23:36;;;;;;;5.63;1.30;;;10.10;1.00;;;;;;4952678;28;20043;-58
2022/09/17 07:26:11;;;;;;;21.85;2.42;;;10.80;1.00;;;;;;4935537;29;20047;-58
2022/09/17 07:28:37;;;;;;;;;;;9.50;1.00;;;;;;4948955;28;20584;-59
2022/09/17 07:31:04;;;;;;;5.88;1.20;;;;;;;;;;4946160;28;19918;-58
2022/09/17 07:33:30;;;;;;;8.85;1.40;;;10.00;1.00;;;;;;4950353;28;20414;-59
2022/09/17 07:35:58;;;;;;;9.05;1.48;;;10.20;1.00;;;;;;4948104;28;20051;-56
2022/09/17 07:38:25;;;;;;;6.30;1.60;;;10.40;1.00;;;;;;4943414;29;20042;-55
2022/09/17 07:41:01;;;;;;;7.15;1.65;;;10.50;1.00;;;;;;4953014;29;20054;-57
2022/09/17 07:43:34;;;;;;;6.18;1.30;;;10.60;1.00;;;;;;4952969;29;20489;-53
2022/09/17 07:46:02;;;;;;;6.38;1.35;;;9.50;1.00;;;;;;4953842;28;20586;-57
2022/09/17 07:48:29;;;;;;;6.95;1.10;;;9.60;1.00;;;;;;4953495;28;20051;-58
2022/09/17 07:50:55;;;;;;;9.80;1.77;;;10.40;1.00;;;;;;4954147;28;20035;-56
2022/09/17 07:53:23;;;;;;;9.07;2.45;;;10.20;1.00;;;;;;4953899;28;20445;-58
2022/09/17 07:55:57;;;;;;;6.93;2.30;;;10.40;1.00;;;;;;4941840;28;20036;-59
2022/09/17 07:58:23;;;;;;;13.93;2.72;;;;;;;;;;4947021;28;21439;-58
2022/09/17 08:00:49;;;;;;;10.48;1.80;;;10.90;1.00;;;;;;4946582;29;20035;-58
2022/09/17 08:03:15;;;;;;;9.45;2.05;;;11.00;1.00;;;;;;4951645;28;20042;-58
2022/09/17 08:05:41;;;;;;;11.27;2.22;;;11.20;1.00;;;;;;4948620;28;20046;-59
2022/09/17 08:08:06;;;;;;;7.25;1.88;;;10.60;1.00;;;;;;4939542;29;20039;-58
2022/09/17 08:10:32;;;;;;;7.75;1.60;;;11.40;1.00;;;;;;4935505;29;20036;-57
2022/09/17 08:12:58;;;;;;;13.18;2.55;;;11.30;1.00;;;;;;4941147;29;20048;-59
2022/09/17 08:15:24;;;;;;;9.15;1.70;;;11.40;1.00;;;;;;4936984;28;20032;-59
2022/09/17 08:17:50;;;;;;;10.90;1.75;;;11.50;1.00;;;;;;4943730;29;20050;-59
2022/09/17 08:20:17;;;;;;;8.93;1.65;;;11.60;1.00;;;;;;4951291;28;20074;-58
2022/09/17 08:22:43;;;;;;;8.00;2.40;;;11.90;1.00;;;;;;4950729;28;20573;-59
2022/09/17 08:25:09;;;;;;;8.43;2.08;;;11.80;1.00;;;;;;4953241;28;20097;-57
2022/09/17 08:27:38;;;;;;;10.48;2.00;;;11.20;1.00;;;;;;4951597;28;20043;-58
2022/09/17 08:30:06;;;;;;;8.07;2.10;;;11.90;1.00;;;;;;4953159;28;20303;-59
2022/09/17 08:32:32;;;;;;;7.07;1.95;;;12.00;1.00;;;;;;4953132;28;20573;-55
2022/09/17 08:34:57;;;;;;;9.00;1.77;;;11.40;1.00;;;;;;4953141;28;20122;-59
2022/09/17 08:37:23;;;;;;;10.32;1.85;;;11.80;1.00;;;;;;4952797;28;20027;-57
2022/09/17 08:39:49;;;;;;;8.60;1.95;;;12.10;1.00;;;;;;4952829;28;20070;-54
2022/09/17 08:42:38;;;;;;;8.88;1.70;;;12.10;1.00;;;;;;4953403;28;20035;-56
2022/09/17 08:45:13;;;;;;;11.07;1.70;;;12.00;1.00;;;;;;4953184;28;20082;-56
2022/09/17 08:47:42;;;;;;;9.77;2.03;;;12.10;1.00;;;;;;4951459;28;20035;-56
2022/09/17 08:50:26;;;;;;;10.23;1.83;;;12.60;1.00;;;;;;4952929;28;20071;-58
2022/09/17 08:53:05;;;;;;;5.75;1.80;;;12.30;1.00;;;;;;4952554;28;20027;-58
2022/09/17 08:55:33;;;;;;;9.98;1.70;;;12.50;1.00;;;;;;4952767;28;20461;-59
2022/09/17 08:58:26;;;;;;;10.55;2.55;;;11.80;1.00;;;;;;4952512;28;20050;-58
2022/09/17 09:01:26;;;;;;;12.90;1.92;;;11.80;1.00;;;;;;4952531;29;20035;-58
2022/09/17 09:04:19;;;;;;;10.52;2.08;;;11.80;1.00;;;;;;4952886;28;20077;-59
2022/09/17 09:06:50;;;;;;;10.15;1.73;;;11.70;1.00;;;;;;4952579;28;20051;-59
2022/09/17 09:09:19;;;;;;;10.00;1.92;;;11.20;1.00;;;;;;4952559;28;20043;-59
2022/09/17 09:11:48;;;;;;;9.68;1.90;;;11.30;1.00;;;;;;4952067;28;20363;-58
2022/09/17 09:14:28;;;;;;;9.07;1.52;;;11.60;1.00;;;;;;4952687;28;20091;-58
2022/09/17 09:16:55;;;;;;;8.85;1.73;;;12.50;1.00;;;;;;4944349;29;20071;-59
2022/09/17 09:19:22;;;;;;;9.82;2.20;;;11.70;1.00;;;;;;4950606;29;20478;-58
2022/09/17 09:22:16;;;;;;;8.43;1.60;;;12.40;1.00;;;;;;4952362;28;20039;-57
2022/09/17 09:24:58;;;;;;;12.27;2.05;;;13.00;1.00;;;;;;4950970;28;20085;-58
2022/09/17 09:27:27;;;;;;;10.15;1.60;;;12.90;1.00;;;;;;4951950;29;20051;-58
2022/09/17 09:30:14;;;;;;;11.00;2.33;;;11.90;1.00;;;;;;4937737;29;20043;-58
2022/09/17 09:33:19;;;;;;;12.30;1.98;;;12.30;1.00;;;;;;4951579;29;20411;-57
2022/09/17 09:35:45;;;;;;;12.25;2.00;;;12.60;1.00;;;;;;4949697;28;20082;-57
2022/09/17 09:38:23;;;;;;;9.57;1.83;;;12.70;1.00;;;;;;4951562;29;20514;-58
2022/09/17 09:41:12;;;;;;;10.40;1.70;;;13.50;1.00;;;;;;4952584;28;20264;-57
2022/09/17 09:43:44;;;;;;;6.32;1.20;;;;;;;;;;4948935;28;20053;-56
2022/09/17 09:46:34;;;;;;;6.07;1.42;;;12.10;1.00;;;;;;4952270;29;20046;-56
2022/09/17 09:49:16;;;;;;;8.98;1.65;;;12.20;1.00;;;;;;4942737;29;20098;-58
2022/09/17 09:51:56;;;;;;;9.25;1.40;;;12.70;1.00;;;;;;4952084;28;20047;-57
2022/09/17 09:54:28;;;;;;;5.93;1.48;;;12.30;1.00;;;;;;4952353;28;20047;-58
2022/09/17 09:57:02;;;;;;;9.65;2.45;;;12.40;1.00;;;;;;4952132;29;20043;-58
2022/09/17 09:59:28;;;;;;;9.60;1.77;;;12.40;1.00;;;;;;4946060;28;20082;-58
2022/09/17 10:01:54;;;;;;;9.35;1.70;;;12.50;1.00;;;;;;4952356;29;20071;-58
2022/09/17 10:04:25;;;;;;;8.23;1.60;;;12.90;1.00;;;;;;4951361;28;20050;-58
2022/09/17 10:07:02;;;;;;;9.50;1.95;;;13.10;1.00;;;;;;4951687;28;20053;-58
2022/09/17 10:09:29;;;;;;;8.38;1.98;;;13.30;1.00;;;;;;4951994;29;20085;-57
2022/09/17 10:12:03;;;;;;;6.60;1.38;;;13.30;1.00;;;;;;4951387;29;20494;-57
2022/09/17 10:14:34;;;;;;;11.32;1.90;;;13.50;1.00;;;;;;4950647;28;20086;-57
2022/09/17 10:17:28;;;;;;;10.07;1.73;;;13.80;1.00;;;;;;4951842;28;20489;-57
2022/09/17 10:20:08;;;;;;;8.80;2.03;;;13.70;1.00;;;;;;4951814;28;20032;-57
2022/09/17 10:22:38;;;;;;;11.45;1.58;;;14.00;1.00;;;;;;4952157;28;20047;-58
2022/09/17 10:25:16;;;;;;;7.65;1.98;;;13.70;1.00;;;;;;4951986;28;20094;-58
2022/09/17 10:27:44;;;;;;;12.68;2.38;;;14.60;1.00;;;;;;4951537;28;20066;-57
2022/09/17 10:30:15;;;;;;;10.80;2.13;;;14.30;1.00;;;;;;4951918;28;20065;-55
2022/09/17 10:32:41;;;;;;;16.15;3.70;;;14.40;1.00;;;;;;4952138;28;20134;-58
2022/09/17 10:35:17;;;;;;;7.88;1.83;;;14.50;1.00;;;;;;4951532;28;20048;-57
2022/09/17 10:37:45;;;;;;;10.13;1.80;;;14.50;1.00;;;;;;4951420;28;20410;-56
2022/09/17 10:40:17;;;;;;;10.90;1.73;;;14.80;1.00;;;;;;4951901;28;20517;-58
2022/09/17 10:42:47;;;;;;;14.40;2.47;;;13.80;1.00;;;;;;4951220;28;20493;-58
2022/09/17 10:45:43;;;;;;;9.15;2.45;;;13.80;1.00;;;;;;4954537;28;20094;-57
2022/09/17 10:48:17;;;;;;;7.70;1.75;;;;;;;;;;4940848;29;20501;-54
2022/09/17 10:50:48;;;;;;;11.40;1.95;;;14.80;1.00;;;;;;4955195;29;20284;-57
2022/09/17 10:53:18;;;;;;;10.15;1.92;;;13.70;1.00;;;;;;4955173;28;20517;-58
2022/09/17 10:56:16;;;;;;;9.55;2.28;;;13.60;1.00;;;;;;4955046;28;20078;-58
2022/09/17 10:59:04;;;;;;;13.05;2.70;;;13.80;1.00;;;;;;4954700;28;20050;-58
2022/09/17 11:01:48;;;;;;;15.05;2.80;;;13.10;1.00;;;;;;4955041;28;20535;-57
2022/09/17 11:04:20;;;;;;;10.43;2.10;;;12.90;1.00;;;;;;4954879;28;20506;-58
2022/09/17 11:06:49;;;;;;;10.27;2.33;;;12.40;1.00;;;;;;4954987;28;20082;-58
2022/09/17 11:09:31;;;;;;;17.25;2.55;;;13.00;1.00;;;;;;4954606;29;20509;-58
2022/09/17 11:12:05;;;;;;;7.72;2.10;;;13.80;1.00;;;;;;4947034;29;20043;-58
2022/09/17 11:14:40;;;;;;;;;;;13.70;1.00;;;;;;4952497;28;20126;-58
2022/09/17 11:17:33;;;;;;;10.63;2.38;;;13.90;1.00;;;;;;4954573;28;19964;-57
2022/09/17 11:20:14;;;;;;;15.07;2.33;;;12.80;1.00;;;;;;4947741;29;20082;-58
2022/09/17 11:22:46;;;;;;;7.90;2.15;;;12.60;1.00;;;;;;4954569;28;20039;-57
2022/09/17 11:25:36;;;;;;;9.43;2.22;;;12.70;1.00;;;;;;4954852;28;20047;-58
2022/09/17 11:28:21;;;;;;;8.77;1.95;;;13.30;1.00;;;;;;4954085;29;20043;-58
2022/09/17 11:31:11;;;;;;;11.35;2.67;;;12.40;1.00;;;;;;4924245;28;20055;-57
2022/09/17 11:33:51;;;;;;;11.57;2.17;;;12.50;1.00;;;;;;4954494;28;20066;-56
2022/09/17 11:36:28;;;;;;;12.30;2.33;;;12.30;1.00;;;;;;4954577;29;20441;-57
2022/09/17 11:38:58;;;;;;;10.85;2.17;;;12.20;1.00;;;;;;4945872;29;20118;-57
2022/09/17 11:41:34;;;;;;;11.88;2.83;;;12.80;1.00;;;;;;4954462;28;20110;-57
2022/09/17 11:44:06;;;;;;;10.27;2.92;;;13.20;1.00;;;;;;4947578;28;20048;-57
2022/09/17 11:46:40;;;;;;;10.88;2.75;;;13.60;1.00;;;;;;4954184;29;20106;-57
2022/09/17 11:49:18;;;;;;;13.25;2.38;;;13.60;1.00;;;;;;5020106;23;20058;-54
2022/09/17 11:52:10;;;;;;;11.23;2.10;;;13.90;1.00;;;;;;4968857;28;20055;-56
2022/09/17 11:54:51;;;;;;;17.48;2.83;;;13.60;99.90;;;;;;4963674;28;20062;-57
2022/09/17 11:57:40;;;;;;;14.27;3.05;;;13.60;99.90;;;;;;4953662;28;20114;-57
2022/09/17 12:00:07;;;;;;;9.25;2.40;;;;;;;;;;4953873;28;20035;-57
2022/09/17 12:02:48;;;;;;;12.00;2.83;;;16.60;99.90;;;;;;4954000;29;20039;-55
2022/09/17 12:05:33;;;;;;;12.40;2.60;;;18.50;99.90;;;;;;4954037;28;20564;-57
2022/09/17 12:08:08;;;;;;;9.75;2.45;;;19.90;99.90;;;;;;4952122;29;20114;-56
2022/09/17 12:10:52;;;;;;;;;;;21.00;99.90;;;;;;4953228;29;20497;-56
2022/09/17 12:13:39;;;;;;;7.35;2.67;;;22.10;99.90;;;;;;4954016;28;19922;-58
2022/09/17 12:16:24;;;;;;;10.25;3.15;;;23.20;99.90;;;;;;4953307;28;20066;-56
2022/09/17 12:18:56;;;;;;;11.07;2.55;;;23.90;99.90;;;;;;4952961;28;20182;-58
2022/09/17 12:21:38;;;;;;;10.65;2.42;;;24.70;99.90;;;;;;4950082;29;20074;-58
2022/09/17 12:24:25;;;;;;;9.68;2.50;;;25.90;99.90;;;;;;4953449;28;20031;-56
2022/09/17 12:27:05;;;;;;;11.82;2.95;;;27.10;99.90;;;;;;4953336;28;20027;-58
2022/09/17 12:30:05;;;;;;;11.02;2.75;;;25.50;99.90;;;;;;4953237;29;20039;-57
2022/09/17 12:32:55;;;;;;;9.38;1.92;;;25.60;99.90;;;;;;4953270;28;20050;-58
2022/09/17 12:35:56;;;;;;;8.82;1.90;;;23.30;99.90;;;;;;4953239;28;20048;-55
2022/09/17 12:38:34;;;;;;;7.38;1.83;;;21.60;99.90;;;;;;4948673;29;20562;-55
2022/09/17 12:41:24;;;;;;;8.10;2.38;;;20.60;99.90;;;;;;4953180;29;20451;-57
2022/09/17 12:43:56;;;;;;;9.30;1.77;;;20.60;99.90;;;;;;4952910;28;20496;-57
2022/09/17 12:46:37;;;;;;;7.82;2.05;;;21.90;99.90;;;;;;4953084;29;20114;-58
2022/09/17 12:49:31;;;;;;;7.47;1.80;;;21.70;99.90;;;;;;4952721;28;20046;-57
2022/09/17 12:52:00;;;;;;;9.05;2.15;;;20.80;99.90;;;;;;4953157;28;20035;-58
2022/09/17 12:54:53;;;;;;;9.52;2.28;;;20.70;99.90;;;;;;4952691;28;20586;-56
2022/09/17 12:57:55;;;;;;;8.13;2.30;;;20.20;99.90;;;;;;4952752;28;20035;-58
2022/09/17 13:00:21;;;;;;;10.77;1.80;;;20.50;99.90;;;;;;4948955;29;20110;-58
2022/09/17 13:03:32;;;;;;;7.82;1.70;;;23.10;99.90;;;;;;4952672;29;20414;-56
2022/09/17 13:06:25;;;;;;;7.95;1.95;;;23.10;99.90;;;;;;4943403;28;20058;-57
2022/09/17 13:09:02;;;;;;;8.07;1.70;;;23.80;99.90;;;;;;4951042;29;20039;-57
2022/09/17 13:12:01;;;;;;;10.32;2.20;;;24.70;99.90;;;;;;4953265;28;20050;-58
2022/09/17 13:14:56;;;;;;;5.63;1.88;;;23.70;99.90;;;;;;4952116;28;20042;-56
2022/09/17 13:17:52;;;;;;;5.90;1.48;;;21.70;99.90;;;;;;4952068;28;20047;-57
2022/09/17 13:20:29;;;;;;;8.95;2.03;;;19.70;99.90;;;;;;4952963;29;20401;-53
2022/09/17 13:22:55;;;;;;;9.15;1.90;;;17.40;99.90;;;;;;4952640;29;20027;-57
2022/09/17 13:25:23;;;;;;;10.85;2.42;;;16.70;99.90;;;;;;4952549;28;20075;-57